createdAt,value
2018-09-11T00:01:42.884Z,7.80
2018-09-11T00:04:10.699Z,8.53
2018-09-11T00:06:38.312Z,9.17
2018-09-11T00:09:10.080Z,8.80
2018-09-11T00:11:37.889Z,8.80
2018-09-11T00:14:05.517Z,8.90
2018-09-11T00:16:33.151Z,8.97
2018-09-11T00:19:00.827Z,9.40
2018-09-11T00:21:28.454Z,9.67
2018-09-11T00:23:56.126Z,9.93
2018-09-11T00:26:23.841Z,8.97
2018-09-11T00:28:51.644Z,8.97
2018-09-11T00:31:19.365Z,9.43
2018-09-11T00:33:47.027Z,8.83
2018-09-11T00:36:14.637Z,8.33
2018-09-11T00:38:42.250Z,8.40
2018-09-11T00:41:09.918Z,7.63
2018-09-11T00:43:37.559Z,8.10
2018-09-11T00:46:05.244Z,7.50
2018-09-11T00:48:32.900Z,7.40
2018-09-11T00:51:00.632Z,7.20
2018-09-11T00:53:28.363Z,6.53
2018-09-11T00:55:56.069Z,6.80
2018-09-11T00:58:23.721Z,6.30
2018-09-11T01:00:51.385Z,5.50
2018-09-11T01:03:19.011Z,5.50
2018-09-11T01:05:46.719Z,5.53
2018-09-11T01:08:14.387Z,4.40
2018-09-11T01:10:42.044Z,4.63
2018-09-11T01:13:10.004Z,5.00
2018-09-11T01:15:37.721Z,4.60
2018-09-11T01:18:05.339Z,4.47
2018-09-11T01:20:32.892Z,4.00
2018-09-11T01:23:00.584Z,3.83
2018-09-11T01:25:28.312Z,3.80
2018-09-11T01:27:56.000Z,3.90
2018-09-11T01:30:23.816Z,3.53
2018-09-11T01:32:51.933Z,3.30
2018-09-11T01:35:20.174Z,3.17
2018-09-11T01:37:47.855Z,2.80
2018-09-11T01:40:15.547Z,3.00
2018-09-11T01:42:43.202Z,2.60
2018-09-11T01:45:10.831Z,3.10
2018-09-11T01:47:38.509Z,2.83
2018-09-11T01:50:06.230Z,3.03
2018-09-11T01:52:33.872Z,3.03
2018-09-11T01:55:01.529Z,3.13
2018-09-11T01:57:29.170Z,2.80
2018-09-11T01:59:56.936Z,3.30
2018-09-11T02:02:24.622Z,3.00
2018-09-11T02:04:52.824Z,3.17
2018-09-11T02:07:20.485Z,3.07
2018-09-11T02:09:48.127Z,2.77
2018-09-11T02:12:15.882Z,2.67
2018-09-11T02:14:43.860Z,2.63
2018-09-11T02:17:11.667Z,3.00
2018-09-11T02:19:39.347Z,2.70
2018-09-11T02:22:07.319Z,2.73
2018-09-11T02:24:35.035Z,3.00
2018-09-11T02:27:02.712Z,2.47
2018-09-11T02:29:30.322Z,3.07
2018-09-11T02:31:58.006Z,3.03
2018-09-11T02:34:25.636Z,3.20
2018-09-11T02:36:53.191Z,3.13
2018-09-11T02:39:20.716Z,3.10
2018-09-11T02:41:48.321Z,2.57
2018-09-11T02:44:16.019Z,3.13
2018-09-11T02:46:43.551Z,2.80
2018-09-11T02:49:11.377Z,2.93
2018-09-11T02:51:39.079Z,2.93
2018-09-11T02:54:06.708Z,2.90
2018-09-11T02:56:34.460Z,3.07
2018-09-11T02:59:02.227Z,2.90
2018-09-11T03:01:29.916Z,3.53
2018-09-11T03:03:57.593Z,2.70
2018-09-11T03:06:25.219Z,3.37
2018-09-11T03:08:52.871Z,3.07
2018-09-11T03:11:20.504Z,3.20
2018-09-11T03:13:50.071Z,2.70
2018-09-11T03:16:17.808Z,3.13
2018-09-11T03:18:45.477Z,3.10
2018-09-11T03:21:13.222Z,3.40
2018-09-11T03:23:40.957Z,3.30
2018-09-11T03:26:08.585Z,3.33
2018-09-11T03:28:36.275Z,3.80
2018-09-11T03:31:03.927Z,4.23
2018-09-11T03:33:31.582Z,3.97
2018-09-11T03:35:59.768Z,4.30
2018-09-11T03:38:27.488Z,4.13
2018-09-11T03:40:55.229Z,4.20
2018-09-11T03:43:22.879Z,3.80
2018-09-11T03:45:50.495Z,4.17
2018-09-11T03:48:20.418Z,3.70
2018-09-11T03:50:49.316Z,3.80
2018-09-11T03:53:17.404Z,3.30
2018-09-11T03:55:45.326Z,3.40
2018-09-11T03:58:12.949Z,3.93
2018-09-11T04:00:40.509Z,3.37
2018-09-11T04:03:08.087Z,3.70
2018-09-11T04:05:35.892Z,3.70
2018-09-11T04:08:03.500Z,3.33
2018-09-11T04:10:31.114Z,3.37
2018-09-11T04:12:58.812Z,3.03
2018-09-11T04:15:26.498Z,4.00
2018-09-11T04:17:55.946Z,3.63
2018-09-11T04:20:23.662Z,4.47
2018-09-11T04:22:51.438Z,4.27
2018-09-11T04:25:19.163Z,3.83
2018-09-11T04:27:46.917Z,4.70
2018-09-11T04:30:14.557Z,4.47
2018-09-11T04:32:42.458Z,4.37
2018-09-11T04:35:10.202Z,4.50
2018-09-11T04:37:37.857Z,4.33
2018-09-11T04:40:05.619Z,4.27
2018-09-11T04:42:33.516Z,4.47
2018-09-11T04:45:01.300Z,4.60
2018-09-11T04:47:28.952Z,4.77
2018-09-11T04:49:56.684Z,4.70
2018-09-11T04:52:24.272Z,4.67
2018-09-11T04:54:52.052Z,3.80
2018-09-11T04:57:19.917Z,3.93
2018-09-11T04:59:47.729Z,3.93
2018-09-11T05:02:15.728Z,3.47
2018-09-11T05:04:43.425Z,3.60
2018-09-11T05:07:11.053Z,3.03
2018-09-11T05:09:38.705Z,3.10
2018-09-11T05:12:06.500Z,3.43
2018-09-11T05:14:34.200Z,3.50
2018-09-11T05:17:01.917Z,3.00
2018-09-11T05:19:29.566Z,2.93
2018-09-11T05:21:57.223Z,3.23
2018-09-11T05:24:24.859Z,2.63
2018-09-11T05:26:52.476Z,3.10
2018-09-11T05:29:20.012Z,2.57
2018-09-11T05:31:47.802Z,3.43
2018-09-11T05:34:15.493Z,2.63
2018-09-11T05:36:43.147Z,2.70
2018-09-11T05:39:10.869Z,3.10
2018-09-11T05:41:38.451Z,3.00
2018-09-11T05:44:06.425Z,3.20
2018-09-11T05:46:34.375Z,2.90
2018-09-11T05:49:02.043Z,2.90
2018-09-11T05:51:29.808Z,2.90
2018-09-11T05:53:57.354Z,2.63
2018-09-11T05:56:24.903Z,2.93
2018-09-11T05:58:52.546Z,2.50
2018-09-11T06:01:20.218Z,2.50
2018-09-11T06:03:47.916Z,2.43
2018-09-11T06:06:15.700Z,3.37
2018-09-11T06:08:43.396Z,2.90
2018-09-11T06:11:11.045Z,2.97
2018-09-11T06:13:38.846Z,2.80
2018-09-11T06:16:06.562Z,2.47
2018-09-11T06:18:34.235Z,2.30
2018-09-11T06:21:01.913Z,2.60
2018-09-11T06:23:29.534Z,2.67
2018-09-11T06:25:57.171Z,2.60
2018-09-11T06:28:24.838Z,2.40
2018-09-11T06:30:52.485Z,2.80
2018-09-11T06:33:20.179Z,2.47
2018-09-11T06:35:47.804Z,2.57
2018-09-11T06:38:16.164Z,2.67
2018-09-11T06:40:43.800Z,2.37
2018-09-11T06:43:11.585Z,2.93
2018-09-11T06:45:39.354Z,2.80
2018-09-11T06:48:07.011Z,2.03
2018-09-11T06:50:34.701Z,2.97
2018-09-11T06:53:02.251Z,2.80
2018-09-11T06:55:30.110Z,2.57
2018-09-11T06:57:57.837Z,2.67
2018-09-11T07:00:25.655Z,2.60
2018-09-11T07:02:53.599Z,2.33
2018-09-11T07:05:21.389Z,2.77
2018-09-11T07:07:49.363Z,3.07
2018-09-11T07:10:17.207Z,2.70
2018-09-11T07:12:44.871Z,3.00
2018-09-11T07:15:12.822Z,2.77
2018-09-11T07:17:40.495Z,4.07
2018-09-11T07:20:09.086Z,5.00
2018-09-11T07:22:36.620Z,4.40
2018-09-11T07:25:04.508Z,5.20
2018-09-11T07:27:33.428Z,4.40
2018-09-11T07:30:01.134Z,3.87
2018-09-11T07:32:28.835Z,3.17
2018-09-11T07:34:56.494Z,3.40
2018-09-11T07:37:24.151Z,2.97
2018-09-11T07:39:51.784Z,3.17
2018-09-11T07:42:19.441Z,3.33
2018-09-11T07:44:47.078Z,2.87
2018-09-11T07:47:14.700Z,2.73
2018-09-11T07:49:42.356Z,2.90
2018-09-11T07:52:10.019Z,2.77
2018-09-11T07:54:37.623Z,2.30
2018-09-11T07:57:05.284Z,2.67
2018-09-11T07:59:32.919Z,3.07
2018-09-11T08:02:00.575Z,3.20
2018-09-11T08:04:28.131Z,2.87
2018-09-11T08:06:55.737Z,2.57
2018-09-11T08:09:23.406Z,2.63
2018-09-11T08:11:51.138Z,2.70
2018-09-11T08:14:18.713Z,3.30
2018-09-11T08:16:46.400Z,3.40
2018-09-11T08:19:14.007Z,3.50
2018-09-11T08:21:41.656Z,3.47
2018-09-11T08:24:09.342Z,4.33
2018-09-11T08:26:36.996Z,5.67
2018-09-11T08:29:04.711Z,3.90
2018-09-11T08:31:32.361Z,4.40
2018-09-11T08:33:59.996Z,3.43
2018-09-11T08:36:27.644Z,3.00
2018-09-11T08:38:55.332Z,1.82
2018-09-11T08:41:23.001Z,2.47
2018-09-11T08:43:50.644Z,2.62
2018-09-11T08:46:18.256Z,2.60
2018-09-11T08:48:45.960Z,2.70
2018-09-11T08:51:13.600Z,2.40
2018-09-11T08:53:41.957Z,2.65
2018-09-11T08:56:09.893Z,2.20
2018-09-11T08:58:37.620Z,1.90
2018-09-11T09:01:05.400Z,2.40
2018-09-11T09:03:33.072Z,2.17
2018-09-11T09:06:00.685Z,2.10
2018-09-11T09:08:28.301Z,2.58
2018-09-11T09:10:55.976Z,2.55
2018-09-11T09:13:23.632Z,2.47
2018-09-11T09:15:51.277Z,2.40
2018-09-11T09:18:18.950Z,2.52
2018-09-11T09:20:46.860Z,2.30
2018-09-11T09:23:14.524Z,2.77
2018-09-11T09:25:42.201Z,2.30
2018-09-11T09:28:09.893Z,2.22
2018-09-11T09:30:37.477Z,1.95
2018-09-11T09:33:05.168Z,2.60
2018-09-11T09:35:32.804Z,1.90
2018-09-11T09:38:00.444Z,2.22
2018-09-11T09:40:28.047Z,2.45
2018-09-11T09:42:55.741Z,2.05
2018-09-11T09:45:23.300Z,2.20
2018-09-11T09:47:50.961Z,2.12
2018-09-11T09:50:18.581Z,2.10
2018-09-11T09:52:46.199Z,2.22
2018-09-11T09:55:15.850Z,2.80
2018-09-11T09:57:43.511Z,2.55
2018-09-11T10:00:11.200Z,2.45
2018-09-11T10:02:38.819Z,2.30
2018-09-11T10:05:06.561Z,2.50
2018-09-11T10:07:34.233Z,2.77
2018-09-11T10:10:01.903Z,2.35
2018-09-11T10:12:29.528Z,2.50
2018-09-11T10:14:57.168Z,2.40
2018-09-11T10:17:24.884Z,2.67
2018-09-11T10:19:52.467Z,2.65
2018-09-11T10:22:20.124Z,2.52
2018-09-11T10:24:47.767Z,2.77
2018-09-11T10:27:15.491Z,2.40
2018-09-11T10:29:43.116Z,2.30
2018-09-11T10:32:10.691Z,2.25
2018-09-11T10:34:38.333Z,2.45
2018-09-11T10:37:05.973Z,2.30
2018-09-11T10:39:33.708Z,2.65
2018-09-11T10:42:01.315Z,2.60
2018-09-11T10:44:28.928Z,2.70
2018-09-11T10:46:56.576Z,2.70
2018-09-11T10:49:24.149Z,2.90
2018-09-11T10:51:51.757Z,2.42
2018-09-11T10:54:19.371Z,2.55
2018-09-11T10:56:46.905Z,2.20
2018-09-11T10:59:14.567Z,2.90
2018-09-11T11:01:42.251Z,2.47
2018-09-11T11:04:09.931Z,2.37
2018-09-11T11:06:37.548Z,2.70
2018-09-11T11:09:07.737Z,2.85
2018-09-11T11:11:35.426Z,2.50
2018-09-11T11:14:03.063Z,2.52
2018-09-11T11:16:30.631Z,2.58
2018-09-11T11:18:58.183Z,2.33
2018-09-11T11:21:25.834Z,2.90
2018-09-11T11:23:53.582Z,2.58
2018-09-11T11:26:21.203Z,2.77
2018-09-11T11:28:48.881Z,2.87
2018-09-11T11:31:16.508Z,2.70
2018-09-11T11:33:44.168Z,2.80
2018-09-11T11:36:11.919Z,2.65
2018-09-11T11:38:39.524Z,2.35
2018-09-11T11:41:07.185Z,2.90
2018-09-11T11:43:34.880Z,2.85
2018-09-11T11:46:02.543Z,2.80
2018-09-11T11:48:30.166Z,2.80
2018-09-11T11:50:57.832Z,2.95
2018-09-11T11:53:25.509Z,2.85
2018-09-11T11:55:53.144Z,2.90
2018-09-11T11:58:20.780Z,2.72
2018-09-11T12:00:48.474Z,2.90
2018-09-11T12:03:16.113Z,2.77
2018-09-11T12:05:43.774Z,2.55
2018-09-11T12:08:11.448Z,2.50
2018-09-11T12:10:39.111Z,2.87
2018-09-11T12:13:06.843Z,2.50
2018-09-11T12:15:34.494Z,3.02
2018-09-11T12:18:02.264Z,3.00
2018-09-11T12:20:30.232Z,3.10
2018-09-11T12:22:57.860Z,3.20
2018-09-11T12:25:25.549Z,3.05
2018-09-11T12:27:53.153Z,3.02
2018-09-11T12:30:20.818Z,2.87
2018-09-11T12:32:48.437Z,2.80
2018-09-11T12:35:16.102Z,2.92
2018-09-11T12:37:43.729Z,2.42
2018-09-11T12:40:11.423Z,2.67
2018-09-11T12:42:39.752Z,2.80
2018-09-11T12:45:07.613Z,2.65
2018-09-11T12:47:36.988Z,2.83
2018-09-11T12:50:04.384Z,3.05
2018-09-11T12:52:32.121Z,3.12
2018-09-11T12:54:59.739Z,2.95
2018-09-11T12:57:27.348Z,3.10
2018-09-11T12:59:55.011Z,3.47
2018-09-11T13:02:22.705Z,2.60
2018-09-11T13:04:50.354Z,2.72
2018-09-11T13:07:18.025Z,2.70
2018-09-11T13:09:46.488Z,2.77
2018-09-11T13:12:14.220Z,2.92
2018-09-11T13:14:41.861Z,2.50
2018-09-11T13:17:09.533Z,2.90
2018-09-11T13:19:37.168Z,3.12
2018-09-11T13:22:04.898Z,3.30
2018-09-11T13:24:32.608Z,2.77
2018-09-11T13:27:00.259Z,2.80
2018-09-11T13:29:27.927Z,2.42
2018-09-11T13:31:55.581Z,2.72
2018-09-11T13:34:23.216Z,2.50
2018-09-11T13:36:50.890Z,2.60
2018-09-11T13:39:18.617Z,2.90
2018-09-11T13:41:46.279Z,2.65
2018-09-11T13:44:13.944Z,2.42
2018-09-11T13:46:42.493Z,2.40
2018-09-11T13:49:10.306Z,2.60
2018-09-11T13:51:37.992Z,2.80
2018-09-11T13:54:05.669Z,3.22
2018-09-11T13:56:33.350Z,2.60
2018-09-11T13:59:00.975Z,3.08
2018-09-11T14:01:28.617Z,2.70
2018-09-11T14:03:56.277Z,2.50
2018-09-11T14:06:23.791Z,2.47
2018-09-11T14:08:51.346Z,2.52
2018-09-11T14:11:19.082Z,2.40
2018-09-11T14:13:46.688Z,2.98
2018-09-11T14:16:14.356Z,2.75
2018-09-11T14:18:41.977Z,2.55
2018-09-11T14:21:09.654Z,2.60
2018-09-11T14:23:37.311Z,2.52
2018-09-11T14:26:05.026Z,2.90
2018-09-11T14:28:32.752Z,3.12
2018-09-11T14:31:00.412Z,2.67
2018-09-11T14:33:28.105Z,2.70
2018-09-11T14:35:55.741Z,2.75
2018-09-11T14:38:23.532Z,2.77
2018-09-11T14:40:51.330Z,2.87
2018-09-11T14:43:18.937Z,2.40
2018-09-11T14:45:46.591Z,2.40
2018-09-11T14:48:14.240Z,2.60
2018-09-11T14:50:41.908Z,2.52
2018-09-11T14:53:09.603Z,2.77
2018-09-11T14:55:37.267Z,2.77
2018-09-11T14:58:05.076Z,2.83
2018-09-11T15:00:32.722Z,2.70
2018-09-11T15:03:00.395Z,2.67
2018-09-11T15:05:27.957Z,2.20
2018-09-11T15:07:55.506Z,3.12
2018-09-11T15:10:23.169Z,2.70
2018-09-11T15:12:50.828Z,2.50
2018-09-11T15:15:18.563Z,2.65
2018-09-11T15:17:47.896Z,2.40
2018-09-11T15:20:15.544Z,2.72
2018-09-11T15:22:43.207Z,2.80
2018-09-11T15:25:10.740Z,2.67
2018-09-11T15:27:38.424Z,2.70
2018-09-11T15:30:06.100Z,2.62
2018-09-11T15:32:33.740Z,2.70
2018-09-11T15:35:01.400Z,2.70
2018-09-11T15:37:29.051Z,2.60
2018-09-11T15:39:56.784Z,2.30
2018-09-11T15:42:24.432Z,2.58
2018-09-11T15:44:52.034Z,2.40
2018-09-11T15:47:19.672Z,2.30
2018-09-11T15:49:47.363Z,2.50
2018-09-11T15:52:15.021Z,2.70
2018-09-11T15:54:42.654Z,2.55
2018-09-11T15:57:10.397Z,2.47
2018-09-11T15:59:38.041Z,2.50
2018-09-11T16:02:05.865Z,2.55
2018-09-11T16:04:33.623Z,2.40
2018-09-11T16:07:01.310Z,2.58
2018-09-11T16:09:28.914Z,2.45
2018-09-11T16:11:56.532Z,2.35
2018-09-11T16:14:24.173Z,2.65
2018-09-11T16:16:51.813Z,2.60
2018-09-11T16:19:19.461Z,2.65
2018-09-11T16:21:47.141Z,2.55
2018-09-11T16:24:14.801Z,2.65
2018-09-11T16:26:42.456Z,2.55
2018-09-11T16:29:10.079Z,2.67
2018-09-11T16:31:37.744Z,2.50
2018-09-11T16:34:05.551Z,3.12
2018-09-11T16:36:33.084Z,2.90
2018-09-11T16:39:00.742Z,3.45
2018-09-11T16:41:28.349Z,2.83
2018-09-11T16:43:57.330Z,3.05
2018-09-11T16:46:24.995Z,2.85
2018-09-11T16:48:52.624Z,3.00
2018-09-11T16:51:20.192Z,3.15
2018-09-11T16:53:47.750Z,3.17
2018-09-11T16:56:15.322Z,2.90
2018-09-11T16:58:42.999Z,2.72
2018-09-11T17:01:10.699Z,2.83
2018-09-11T17:03:38.279Z,2.72
2018-09-11T17:06:06.033Z,2.58
2018-09-11T17:08:33.725Z,3.10
2018-09-11T17:11:01.386Z,3.00
2018-09-11T17:13:29.024Z,3.67
2018-09-11T17:15:56.796Z,2.90
2018-09-11T17:18:24.416Z,2.83
2018-09-11T17:20:52.125Z,2.72
2018-09-11T17:23:19.764Z,2.90
2018-09-11T17:25:47.414Z,3.00
2018-09-11T17:28:15.125Z,2.90
2018-09-11T17:30:42.868Z,2.80
2018-09-11T17:33:10.490Z,2.87
2018-09-11T17:35:38.184Z,2.95
2018-09-11T17:38:05.806Z,3.00
2018-09-11T17:40:33.428Z,2.40
2018-09-11T17:43:01.222Z,2.47
2018-09-11T17:45:28.902Z,2.77
2018-09-11T17:47:56.568Z,3.00
2018-09-11T17:50:24.195Z,3.20
2018-09-11T17:52:51.808Z,2.90
2018-09-11T17:55:19.600Z,3.30
2018-09-11T17:57:47.244Z,2.80
2018-09-11T18:00:14.917Z,2.80
2018-09-11T18:02:42.676Z,2.83
2018-09-11T18:05:10.482Z,2.95
2018-09-11T18:07:38.258Z,2.95
2018-09-11T18:10:05.884Z,2.98
2018-09-11T18:12:33.523Z,3.00
2018-09-11T18:15:01.297Z,3.17
2018-09-11T18:17:29.013Z,3.00
2018-09-11T18:19:56.661Z,2.95
2018-09-11T18:22:24.305Z,3.77
2018-09-11T18:24:52.143Z,2.60
2018-09-11T18:27:19.869Z,3.22
2018-09-11T18:29:47.493Z,2.90
2018-09-11T18:32:15.147Z,3.33
2018-09-11T18:34:42.800Z,3.15
2018-09-11T18:37:10.473Z,3.30
2018-09-11T18:39:38.189Z,2.98
2018-09-11T18:42:05.929Z,2.83
2018-09-11T18:44:33.621Z,3.25
2018-09-11T18:47:01.193Z,2.80
2018-09-11T18:49:28.937Z,2.87
2018-09-11T18:51:56.745Z,3.35
2018-09-11T18:54:24.356Z,3.02
2018-09-11T18:56:52.226Z,3.33
2018-09-11T18:59:19.931Z,3.35
2018-09-11T19:01:47.660Z,3.25
2018-09-11T19:04:15.330Z,3.00
2018-09-11T19:06:43.376Z,3.52
2018-09-11T19:09:11.872Z,3.27
2018-09-11T19:11:41.571Z,3.45
2018-09-11T19:14:09.916Z,3.55
2018-09-11T19:16:37.692Z,3.20
2018-09-11T19:19:05.312Z,3.42
2018-09-11T19:21:33.178Z,3.45
2018-09-11T19:24:00.982Z,3.45
2018-09-11T19:26:28.970Z,3.35
2018-09-11T19:28:56.782Z,3.08
2018-09-11T19:31:24.368Z,3.37
2018-09-11T19:33:53.854Z,3.50
2018-09-11T19:36:21.668Z,3.58
2018-09-11T19:38:49.415Z,3.87
2018-09-11T19:41:17.126Z,3.40
2018-09-11T19:43:44.780Z,3.20
2018-09-11T19:46:12.463Z,3.35
2018-09-11T19:48:40.117Z,3.50
2018-09-11T19:51:07.809Z,3.30
2018-09-11T19:53:35.638Z,3.17
2018-09-11T19:56:03.317Z,3.20
2018-09-11T19:58:31.021Z,3.70
2018-09-11T20:00:58.730Z,3.50
2018-09-11T20:03:26.397Z,3.47
2018-09-11T20:05:54.143Z,3.75
2018-09-11T20:08:21.739Z,3.75
2018-09-11T20:10:49.398Z,3.67
2018-09-11T20:13:17.168Z,3.52
2018-09-11T20:15:45.987Z,4.08
2018-09-11T20:18:13.637Z,3.25
2018-09-11T20:20:41.240Z,3.40
2018-09-11T20:23:08.998Z,3.83
2018-09-11T20:25:36.705Z,3.20
2018-09-11T20:28:04.510Z,3.87
2018-09-11T20:30:32.203Z,3.40
2018-09-11T20:32:59.814Z,3.55
2018-09-11T20:35:27.519Z,3.85
2018-09-11T20:37:55.215Z,3.77
2018-09-11T20:40:22.889Z,2.95
2018-09-11T20:42:50.525Z,3.60
2018-09-11T20:45:18.100Z,3.33
2018-09-11T20:47:45.768Z,3.12
2018-09-11T20:50:13.444Z,3.20
2018-09-11T20:52:41.068Z,3.42
2018-09-11T20:55:08.792Z,2.95
2018-09-11T20:57:36.696Z,3.20
2018-09-11T21:00:04.289Z,3.62
2018-09-11T21:02:31.828Z,3.70
2018-09-11T21:04:59.469Z,3.40
2018-09-11T21:07:27.140Z,3.87
2018-09-11T21:09:54.739Z,3.40
2018-09-11T21:12:22.389Z,3.75
2018-09-11T21:14:50.151Z,3.20
2018-09-11T21:17:17.831Z,3.55
2018-09-11T21:19:45.467Z,4.50
2018-09-11T21:22:13.176Z,4.20
2018-09-11T21:24:40.851Z,4.03
2018-09-11T21:27:08.580Z,4.42
2018-09-11T21:29:36.199Z,4.33
2018-09-11T21:32:03.912Z,4.10
2018-09-11T21:34:31.539Z,3.95
2018-09-11T21:36:59.189Z,4.55
2018-09-11T21:39:26.832Z,4.12
2018-09-11T21:41:54.507Z,3.47
2018-09-11T21:44:22.176Z,4.05
2018-09-11T21:46:49.899Z,3.77
2018-09-11T21:49:17.577Z,4.17
2018-09-11T21:51:45.214Z,4.05
2018-09-11T21:54:12.832Z,3.90
2018-09-11T21:56:40.564Z,4.25
2018-09-11T21:59:08.287Z,4.05
2018-09-11T22:01:42.940Z,3.72
2018-09-11T22:04:10.724Z,3.52
2018-09-11T22:06:38.387Z,3.30
2018-09-11T22:09:07.847Z,3.65
2018-09-11T22:11:35.549Z,3.50
2018-09-11T22:14:03.200Z,3.85
2018-09-11T22:16:30.863Z,3.83
2018-09-11T22:18:58.639Z,3.95
2018-09-11T22:21:26.355Z,3.35
2018-09-11T22:23:54.010Z,3.45
2018-09-11T22:26:21.643Z,3.85
2018-09-11T22:28:49.303Z,3.77
2018-09-11T22:31:16.980Z,3.87
2018-09-11T22:33:44.692Z,3.52
2018-09-11T22:36:12.363Z,3.60
2018-09-11T22:38:41.643Z,3.20
2018-09-11T22:41:09.357Z,3.70
2018-09-11T22:43:39.185Z,3.60
2018-09-11T22:46:06.905Z,4.47
2018-09-11T22:48:34.563Z,3.87
2018-09-11T22:51:02.213Z,3.83
2018-09-11T22:53:29.872Z,4.08
2018-09-11T22:55:58.090Z,4.03
2018-09-11T22:58:25.745Z,3.40
2018-09-11T23:00:53.399Z,3.45
2018-09-11T23:03:21.088Z,3.95
2018-09-11T23:05:48.791Z,4.03
2018-09-11T23:08:16.543Z,3.60
2018-09-11T23:10:44.163Z,4.17
2018-09-11T23:13:11.819Z,3.80
2018-09-11T23:15:39.524Z,3.65
2018-09-11T23:18:07.453Z,3.70
2018-09-11T23:20:35.125Z,3.87
2018-09-11T23:23:02.756Z,3.55
2018-09-11T23:25:30.395Z,3.95
2018-09-11T23:27:58.064Z,4.30
2018-09-11T23:30:25.727Z,3.60
2018-09-11T23:32:53.426Z,3.60
2018-09-11T23:35:21.089Z,4.62
2018-09-11T23:37:48.740Z,4.20
2018-09-11T23:40:16.358Z,3.90
2018-09-11T23:42:43.971Z,3.58
2018-09-11T23:45:11.613Z,4.20
2018-09-11T23:47:39.128Z,3.90
2018-09-11T23:50:07.293Z,4.42
2018-09-11T23:52:34.939Z,4.47
2018-09-11T23:55:02.663Z,4.25
2018-09-11T23:57:30.203Z,3.97
2018-09-11T23:59:57.942Z,4.28
